createdAt,value
2018-06-11T00:00:01.824Z,1007.78
2018-06-11T00:01:54.749Z,1007.82
2018-06-11T00:02:54.768Z,1007.80
2018-06-11T00:04:47.718Z,1007.78
2018-06-11T00:05:47.717Z,1007.83
2018-06-11T00:07:40.651Z,1007.81
2018-06-11T00:08:40.664Z,1007.78
2018-06-11T00:10:33.612Z,1007.78
2018-06-11T00:11:33.614Z,1007.75
2018-06-11T00:13:26.549Z,1007.76
2018-06-11T00:14:26.567Z,1007.78
2018-06-11T00:16:19.517Z,1007.79
2018-06-11T00:17:19.510Z,1007.81
2018-06-11T00:19:12.463Z,1007.83
2018-06-11T00:20:12.457Z,1007.84
2018-06-11T00:22:05.390Z,1007.88
2018-06-11T00:23:05.477Z,1007.88
2018-06-11T00:24:58.353Z,1007.88
2018-06-11T00:25:58.349Z,1007.88
2018-06-11T00:27:51.285Z,1007.84
2018-06-11T00:28:51.298Z,1007.85
2018-06-11T00:30:44.262Z,1007.86
2018-06-11T00:31:44.250Z,1007.91
2018-06-11T00:33:37.174Z,1007.88
2018-06-11T00:34:37.197Z,1007.84
2018-06-11T00:36:30.150Z,1007.84
2018-06-11T00:37:30.135Z,1007.82
2018-06-11T00:39:23.119Z,1007.83
2018-06-11T00:40:23.088Z,1007.83
2018-06-11T00:42:16.016Z,1007.78
2018-06-11T00:43:16.038Z,1007.79
2018-06-11T00:45:08.996Z,1007.68
2018-06-11T00:46:08.987Z,1007.65
2018-06-11T00:48:01.935Z,1007.62
2018-06-11T00:49:01.932Z,1007.61
2018-06-11T00:50:54.881Z,1007.56
2018-06-11T00:51:54.876Z,1007.58
2018-06-11T00:53:47.812Z,1007.59
2018-06-11T00:54:47.826Z,1007.57
2018-06-11T00:56:40.773Z,1007.47
2018-06-11T00:57:40.772Z,1007.49
2018-06-11T00:59:33.721Z,1007.46
2018-06-11T01:00:33.720Z,1007.46
2018-06-11T01:02:26.647Z,1007.51
2018-06-11T01:03:26.667Z,1007.55
2018-06-11T01:05:19.611Z,1007.51
2018-06-11T01:06:19.604Z,1007.45
2018-06-11T01:08:12.556Z,1007.40
2018-06-11T01:09:12.556Z,1007.38
2018-06-11T01:11:05.519Z,1007.43
2018-06-11T01:12:05.512Z,1007.36
2018-06-11T01:13:58.440Z,1007.37
2018-06-11T01:14:58.453Z,1007.32
2018-06-11T01:16:51.407Z,1007.31
2018-06-11T01:17:51.408Z,1007.37
2018-06-11T01:19:44.366Z,1007.38
2018-06-11T01:20:44.367Z,1007.41
2018-06-11T01:22:37.293Z,1007.36
2018-06-11T01:23:37.308Z,1007.35
2018-06-11T01:25:30.257Z,1007.33
2018-06-11T01:26:30.252Z,1007.34
2018-06-11T01:28:23.185Z,1007.36
2018-06-11T01:29:23.202Z,1007.29
2018-06-11T01:31:16.147Z,1007.38
2018-06-11T01:32:16.148Z,1007.35
2018-06-11T01:34:09.070Z,1007.27
2018-06-11T01:35:09.090Z,1007.28
2018-06-11T01:37:02.542Z,1007.32
2018-06-11T01:38:02.531Z,1007.32
2018-06-11T01:39:55.483Z,1007.30
2018-06-11T01:40:55.479Z,1007.31
2018-06-11T01:42:48.412Z,1007.36
2018-06-11T01:43:48.434Z,1007.32
2018-06-11T01:45:41.388Z,1007.35
2018-06-11T01:46:41.376Z,1007.38
2018-06-11T03:48:16.423Z,1006.90
2018-06-11T03:49:16.407Z,1006.89
2018-06-11T03:51:09.349Z,1006.92
2018-06-11T03:52:09.333Z,1006.96
2018-06-11T03:54:02.252Z,1006.96
2018-06-11T03:55:02.262Z,1007.00
2018-06-11T03:56:55.205Z,1007.00
2018-06-11T03:57:55.193Z,1006.98
2018-06-11T03:59:48.123Z,1007.06
2018-06-11T04:00:48.184Z,1007.05
2018-06-11T04:02:41.070Z,1007.03
2018-06-11T04:03:41.078Z,1007.07
2018-06-11T04:05:33.991Z,1007.08
2018-06-11T04:06:34.002Z,1007.09
2018-06-11T04:08:26.959Z,1007.02
2018-06-11T04:09:26.949Z,1007.07
2018-06-11T04:11:19.901Z,1007.12
2018-06-11T04:12:19.893Z,1007.11
2018-06-11T04:14:12.822Z,1007.13
2018-06-11T04:15:12.832Z,1007.12
2018-06-11T04:17:05.781Z,1007.13
2018-06-11T04:18:05.770Z,1007.10
2018-06-11T04:19:58.707Z,1007.10
2018-06-11T04:20:58.723Z,1007.13
2018-06-11T04:22:51.685Z,1007.15
2018-06-11T04:23:51.679Z,1007.09
2018-06-11T04:25:44.606Z,1007.11
2018-06-11T04:26:44.619Z,1007.08
2018-06-11T04:28:37.568Z,1007.04
2018-06-11T04:29:37.567Z,1007.04
2018-06-11T04:31:30.513Z,1006.96
2018-06-11T04:32:30.506Z,1007.04
2018-06-11T04:34:23.431Z,1007.05
2018-06-11T04:35:23.446Z,1007.01
2018-06-11T04:37:16.400Z,1007.06
2018-06-11T04:38:16.397Z,1007.01
2018-06-11T04:40:09.328Z,1006.95
2018-06-11T04:41:09.344Z,1006.90
2018-06-11T04:43:02.300Z,1006.92
2018-06-11T04:44:02.297Z,1006.96
2018-06-11T04:45:55.227Z,1006.92
2018-06-11T04:46:55.252Z,1006.88
2018-06-11T04:48:48.205Z,1006.96
2018-06-11T04:49:48.194Z,1006.90
2018-06-11T04:51:41.158Z,1006.96
2018-06-11T04:52:41.154Z,1006.91
2018-06-11T04:54:34.081Z,1006.89
2018-06-11T04:55:34.098Z,1006.89
2018-06-11T04:57:27.155Z,1006.95
2018-06-11T04:58:27.142Z,1006.99
2018-06-11T05:00:20.071Z,1006.97
2018-06-11T05:01:20.089Z,1007.05
2018-06-11T05:03:13.037Z,1007.11
2018-06-11T05:04:13.140Z,1007.17
2018-06-11T05:06:05.970Z,1007.15
2018-06-11T05:07:05.983Z,1007.16
2018-06-11T05:08:58.932Z,1007.19
2018-06-11T05:09:58.927Z,1007.22
2018-06-11T05:11:51.874Z,1007.22
2018-06-11T05:12:51.869Z,1007.23
2018-06-11T05:14:44.808Z,1007.28
2018-06-11T05:15:44.827Z,1007.27
2018-06-11T05:17:37.781Z,1007.29
2018-06-11T05:18:37.778Z,1007.23
2018-06-11T05:20:30.715Z,1007.31
2018-06-11T05:21:30.725Z,1007.40
2018-06-11T05:23:23.674Z,1007.51
2018-06-11T05:24:23.671Z,1007.50
2018-06-11T05:26:16.607Z,1007.60
2018-06-11T05:27:16.630Z,1007.72
2018-06-11T05:29:09.573Z,1007.71
2018-06-11T05:30:09.571Z,1007.84
2018-06-11T05:32:02.530Z,1007.80
2018-06-11T05:33:02.532Z,1007.66
2018-06-11T05:34:55.522Z,1007.84
2018-06-11T05:35:55.484Z,1007.65
2018-06-11T05:37:48.441Z,1007.71
2018-06-11T05:38:48.434Z,1007.61
2018-06-11T05:40:41.379Z,1007.44
2018-06-11T05:41:41.395Z,1007.70
2018-06-11T05:43:34.354Z,1008.02
2018-06-11T05:44:34.347Z,1007.78
2018-06-11T05:46:27.286Z,1008.08
2018-06-11T05:47:27.315Z,1008.03
2018-06-11T05:49:20.269Z,1007.98
2018-06-11T05:50:20.274Z,1007.94
2018-06-11T05:52:13.228Z,1007.92
2018-06-11T05:53:13.231Z,1007.90
2018-06-11T05:55:06.162Z,1007.91
2018-06-11T05:56:06.184Z,1007.95
2018-06-11T05:57:59.157Z,1007.98
2018-06-11T05:58:59.157Z,1008.00
2018-06-11T06:00:52.096Z,1007.84
2018-06-11T06:01:52.121Z,1007.78
2018-06-11T06:03:45.083Z,1007.86
2018-06-11T06:04:45.078Z,1007.97
2018-06-11T06:06:38.019Z,1007.88
2018-06-11T06:07:38.037Z,1007.81
2018-06-11T06:09:31.098Z,1007.78
2018-06-11T06:10:31.081Z,1007.80
2018-06-11T06:12:24.138Z,1007.76
2018-06-11T06:13:24.139Z,1007.75
2018-06-11T06:15:17.167Z,1007.77
2018-06-11T06:16:17.191Z,1007.79
2018-06-11T06:18:10.246Z,1007.67
2018-06-11T06:19:10.246Z,1007.62
2018-06-11T06:21:03.282Z,1007.72
2018-06-11T06:22:03.302Z,1007.65
2018-06-11T06:23:56.363Z,1007.58
2018-06-11T06:24:56.353Z,1007.56
2018-06-11T06:26:49.312Z,1007.63
2018-06-11T06:27:49.339Z,1007.58
2018-06-11T06:29:42.368Z,1007.59
2018-06-11T06:30:42.365Z,1007.62
2018-06-11T06:32:35.437Z,1007.62
2018-06-11T06:33:35.422Z,1007.60
2018-06-11T06:35:28.465Z,1007.58
2018-06-11T06:36:28.475Z,1007.54
2018-06-11T06:38:21.534Z,1007.55
2018-06-11T06:39:21.531Z,1007.61
2018-06-11T06:41:14.580Z,1007.60
2018-06-11T06:42:14.586Z,1007.61
2018-06-11T06:44:07.642Z,1007.67
2018-06-11T06:45:07.640Z,1007.61
2018-06-11T06:47:00.680Z,1007.72
2018-06-11T06:48:00.694Z,1007.72
2018-06-11T06:49:53.754Z,1007.75
2018-06-11T06:50:53.756Z,1007.80
2018-06-11T06:52:46.812Z,1007.85
2018-06-11T06:53:46.810Z,1007.85
2018-06-11T06:55:39.851Z,1007.99
2018-06-11T06:56:39.867Z,1007.88
2018-06-11T06:58:32.820Z,1007.99
2018-06-11T06:59:32.818Z,1008.03
2018-06-11T07:01:25.759Z,1008.13
2018-06-11T07:02:25.785Z,1008.05
2018-06-11T07:04:18.735Z,1007.95
2018-06-11T07:05:18.734Z,1008.16
2018-06-11T07:07:11.678Z,1007.98
2018-06-11T07:08:11.741Z,1008.03
2018-06-11T07:10:04.661Z,1008.20
2018-06-11T07:11:04.656Z,1008.09
2018-06-11T07:12:59.075Z,1007.89
2018-06-11T07:13:57.792Z,1008.01
2018-06-11T07:15:57.080Z,1007.99
2018-06-11T07:16:57.707Z,1007.82
2018-06-11T07:18:56.287Z,1007.91
2018-06-11T07:19:53.923Z,1007.90
2018-06-11T07:21:47.965Z,1008.08
2018-06-11T07:22:47.328Z,1008.09
2018-06-11T07:24:44.274Z,1008.02
2018-06-11T07:25:43.077Z,1007.95
2018-06-11T07:27:38.022Z,1007.96
2018-06-11T07:28:52.617Z,1008.02
2018-06-11T07:30:40.217Z,1007.97
2018-06-11T07:31:35.044Z,1008.10
2018-06-11T07:33:27.616Z,1007.84
2018-06-11T07:34:28.221Z,1008.05
2018-06-11T07:36:19.812Z,1007.75
2018-06-11T07:37:19.850Z,1008.01
2018-06-11T07:39:12.817Z,1008.01
2018-06-11T07:40:14.178Z,1008.03
2018-06-11T07:42:05.753Z,1007.97
2018-06-11T07:43:05.781Z,1007.77
2018-06-11T07:44:58.739Z,1007.92
2018-06-11T07:45:58.748Z,1007.85
2018-06-11T07:47:51.695Z,1007.73
2018-06-11T07:48:51.714Z,1007.93
2018-06-11T07:50:44.698Z,1007.94
2018-06-11T07:51:44.715Z,1007.88
2018-06-11T07:53:37.639Z,1007.91
2018-06-11T07:54:37.644Z,1007.93
2018-06-11T07:56:30.599Z,1007.89
2018-06-11T07:57:30.621Z,1007.87
2018-06-11T07:59:23.583Z,1007.80
2018-06-11T08:00:23.579Z,1007.73
2018-06-11T08:02:16.529Z,1007.65
2018-06-11T08:03:16.557Z,1007.59
2018-06-11T08:05:09.517Z,1007.63
2018-06-11T08:06:09.519Z,1007.66
2018-06-11T08:08:02.518Z,1007.67
2018-06-11T08:09:02.540Z,1007.62
2018-06-11T08:10:55.596Z,1007.61
2018-06-11T08:11:55.600Z,1007.54
2018-06-11T08:13:48.648Z,1007.53
2018-06-11T08:14:48.652Z,1007.57
2018-06-11T08:16:41.744Z,1007.66
2018-06-11T08:17:41.759Z,1007.63
2018-06-11T08:19:34.821Z,1007.63
2018-06-11T08:20:34.843Z,1007.66
2018-06-11T08:22:27.858Z,1007.59
2018-06-11T08:23:27.879Z,1007.61
2018-06-11T08:25:20.937Z,1007.57
2018-06-11T08:26:20.938Z,1007.51
2018-06-11T08:28:13.980Z,1007.39
2018-06-11T08:29:14.003Z,1007.43
2018-06-11T08:31:07.054Z,1007.41
2018-06-11T08:32:07.058Z,1007.33
2018-06-11T08:34:00.123Z,1007.33
2018-06-11T08:35:00.121Z,1007.35
2018-06-11T08:36:53.660Z,1007.41
2018-06-11T08:37:53.697Z,1007.35
2018-06-11T08:39:46.737Z,1007.40
2018-06-11T08:40:46.746Z,1007.48
2018-06-11T08:42:39.797Z,1007.62
2018-06-11T08:43:39.813Z,1007.58
2018-06-11T08:45:32.867Z,1007.55
2018-06-11T08:46:32.862Z,1007.57
2018-06-11T08:48:25.895Z,1007.52
2018-06-11T08:49:25.921Z,1007.52
2018-06-11T08:51:18.985Z,1007.53
2018-06-11T08:52:18.980Z,1007.51
2018-06-11T08:54:12.132Z,1007.53
2018-06-11T08:55:12.141Z,1007.50
2018-06-11T08:57:05.172Z,1007.52
2018-06-11T08:58:05.202Z,1007.51
2018-06-11T08:59:58.311Z,1007.53
2018-06-11T09:00:58.255Z,1007.62
2018-06-11T09:02:51.288Z,1007.62
2018-06-11T09:03:51.309Z,1007.69
2018-06-11T09:05:44.368Z,1007.70
2018-06-11T09:06:44.370Z,1007.82
2018-06-11T09:08:37.408Z,1007.92
2018-06-11T09:09:37.427Z,1007.91
2018-06-11T09:11:30.508Z,1007.77
2018-06-11T09:12:30.541Z,1007.83
2018-06-11T09:14:23.460Z,1007.90
2018-06-11T09:15:23.454Z,1007.80
2018-06-11T09:17:16.478Z,1007.80
2018-06-11T09:18:16.583Z,1007.88
2018-06-11T09:20:09.571Z,1007.86
2018-06-11T09:21:09.558Z,1007.81
2018-06-11T09:23:02.590Z,1007.81
2018-06-11T09:24:02.611Z,1007.73
2018-06-11T09:25:56.087Z,1007.78
2018-06-11T09:26:56.083Z,1007.70
2018-06-11T09:28:49.037Z,1007.71
2018-06-11T09:29:49.058Z,1007.70
2018-06-11T09:31:42.585Z,1007.66
2018-06-11T09:32:42.580Z,1007.66
2018-06-11T09:34:35.538Z,1007.66
2018-06-11T09:35:35.541Z,1007.64
2018-06-11T09:37:28.482Z,1007.63
2018-06-11T09:38:28.504Z,1007.59
2018-06-11T09:40:21.954Z,1007.56
2018-06-11T09:41:21.968Z,1007.51
2018-06-11T09:43:14.893Z,1007.56
2018-06-11T09:44:14.955Z,1007.55
2018-06-11T09:46:07.874Z,1007.54
2018-06-11T09:47:07.878Z,1007.54
2018-06-11T09:49:00.896Z,1007.55
2018-06-11T09:50:00.918Z,1007.55
2018-06-11T09:51:53.969Z,1007.47
2018-06-11T09:52:53.968Z,1007.55
2018-06-11T09:54:47.028Z,1007.41
2018-06-11T09:55:47.040Z,1007.35
2018-06-11T09:57:40.059Z,1007.40
2018-06-11T09:58:40.082Z,1007.37
2018-06-11T10:00:33.036Z,1007.40
2018-06-11T10:01:33.042Z,1007.45
2018-06-11T10:03:25.976Z,1007.40
2018-06-11T10:04:25.998Z,1007.41
2018-06-11T10:06:18.954Z,1007.45
2018-06-11T10:07:18.954Z,1007.38
2018-06-11T10:09:11.982Z,1007.36
2018-06-11T10:10:11.994Z,1007.48
2018-06-11T10:12:05.051Z,1007.42
2018-06-11T10:13:05.050Z,1007.40
2018-06-11T10:14:58.251Z,1007.35
2018-06-11T10:15:58.230Z,1007.36
2018-06-11T10:17:51.146Z,1007.37
2018-06-11T10:18:51.179Z,1007.45
2018-06-11T10:20:44.219Z,1007.39
2018-06-11T10:21:44.224Z,1007.41
2018-06-11T10:23:37.250Z,1007.40
2018-06-11T10:24:37.273Z,1007.38
2018-06-11T10:26:30.328Z,1007.33
2018-06-11T10:27:30.328Z,1007.28
2018-06-11T10:29:23.374Z,1007.34
2018-06-11T10:30:23.385Z,1007.33
2018-06-11T10:32:16.486Z,1007.39
2018-06-11T10:33:16.461Z,1007.40
2018-06-11T10:35:09.539Z,1007.36
2018-06-11T10:36:10.406Z,1007.37
2018-06-11T10:38:03.054Z,1007.42
2018-06-11T10:39:03.076Z,1007.35
2018-06-11T10:40:56.123Z,1007.34
2018-06-11T10:41:56.190Z,1007.40
2018-06-11T10:43:49.158Z,1007.40
2018-06-11T10:44:49.190Z,1007.41
2018-06-11T10:46:42.353Z,1007.39
2018-06-11T10:47:42.262Z,1007.34
2018-06-11T10:49:35.304Z,1007.41
2018-06-11T10:50:35.347Z,1007.38
2018-06-11T10:52:28.408Z,1007.31
2018-06-11T10:53:29.309Z,1007.27
2018-06-11T10:55:21.520Z,1007.23
2018-06-11T10:56:21.462Z,1007.24
2018-06-11T10:58:14.515Z,1007.19
2018-06-11T10:59:14.450Z,1007.16
2018-06-11T11:01:08.059Z,1007.08
2018-06-11T11:02:07.564Z,1007.08
2018-06-11T11:04:00.601Z,1007.07
2018-06-11T11:05:00.614Z,1007.09
2018-06-11T11:06:53.623Z,1007.12
2018-06-11T11:07:53.621Z,1007.10
2018-06-11T11:09:46.663Z,1007.02
2018-06-11T11:10:46.684Z,1007.11
2018-06-11T11:12:39.806Z,1007.07
2018-06-11T11:13:39.726Z,1007.03
2018-06-11T11:15:32.786Z,1007.09
2018-06-11T11:16:32.786Z,1007.06
2018-06-11T11:18:25.821Z,1007.03
2018-06-11T11:19:25.841Z,1006.96
2018-06-11T11:21:18.799Z,1006.99
2018-06-11T11:22:18.800Z,1006.96
2018-06-11T11:24:11.742Z,1006.91
2018-06-11T11:25:11.759Z,1006.84
2018-06-11T11:27:04.715Z,1006.86
2018-06-11T11:28:04.715Z,1006.87
2018-06-11T11:29:57.650Z,1006.91
2018-06-11T11:30:57.671Z,1006.89
2018-06-11T11:32:50.632Z,1006.87
2018-06-11T11:33:50.674Z,1006.82
2018-06-11T11:35:43.589Z,1006.84
2018-06-11T11:36:43.589Z,1006.80
2018-06-11T11:38:36.532Z,1006.78
2018-06-11T11:39:36.546Z,1006.78
2018-06-11T11:41:29.525Z,1006.76
2018-06-11T11:42:29.532Z,1006.74
2018-06-11T11:44:22.456Z,1006.65
2018-06-11T11:45:22.475Z,1006.64
2018-06-11T11:47:15.434Z,1006.70
2018-06-11T11:48:15.434Z,1006.60
2018-06-11T11:50:08.374Z,1006.58
2018-06-11T11:51:08.401Z,1006.60
2018-06-11T11:53:01.356Z,1006.53
2018-06-11T11:54:01.355Z,1006.56
2018-06-11T11:55:54.320Z,1006.55
2018-06-11T11:56:54.316Z,1006.53
2018-06-11T11:58:47.256Z,1006.50
2018-06-11T11:59:47.275Z,1006.44
2018-06-11T12:01:40.262Z,1006.39
2018-06-11T12:02:40.230Z,1006.36
2018-06-11T12:04:33.171Z,1006.36
2018-06-11T12:05:33.196Z,1006.33
2018-06-11T12:07:26.162Z,1006.32
2018-06-11T12:08:26.160Z,1006.36
2018-06-11T12:10:19.099Z,1006.32
2018-06-11T12:11:19.116Z,1006.35
2018-06-11T12:13:12.128Z,1006.31
2018-06-11T12:14:12.129Z,1006.34
2018-06-11T12:16:05.189Z,1006.34
2018-06-11T12:17:05.185Z,1006.36
2018-06-11T12:18:58.227Z,1006.37
2018-06-11T12:19:58.242Z,1006.44
2018-06-11T12:21:51.300Z,1006.36
2018-06-11T12:22:51.301Z,1006.34
2018-06-11T12:24:44.342Z,1006.33
2018-06-11T12:25:44.354Z,1006.34
2018-06-11T12:27:38.855Z,1006.34
2018-06-11T12:28:38.853Z,1006.26
2018-06-11T12:30:31.898Z,1006.18
2018-06-11T12:31:31.908Z,1006.25
2018-06-11T12:33:24.967Z,1006.21
2018-06-11T12:34:24.969Z,1006.22
2018-06-11T12:36:18.026Z,1006.18
2018-06-11T12:37:18.023Z,1006.24
2018-06-11T12:39:11.085Z,1006.20
2018-06-11T12:40:11.090Z,1006.18
2018-06-11T12:42:04.144Z,1006.17
2018-06-11T12:43:04.145Z,1006.11
2018-06-11T12:44:57.199Z,1006.12
2018-06-11T12:45:57.201Z,1006.01
2018-06-11T12:47:50.258Z,1005.97
2018-06-11T12:48:50.260Z,1005.97
2018-06-11T12:50:43.304Z,1005.90
2018-06-11T12:51:43.323Z,1005.90
2018-06-11T12:53:36.378Z,1005.81
2018-06-11T12:54:36.380Z,1005.76
2018-06-11T12:56:29.442Z,1005.72
2018-06-11T12:57:29.432Z,1005.68
2018-06-11T12:59:22.996Z,1005.66
2018-06-11T13:00:23.004Z,1005.71
2018-06-11T13:02:16.062Z,1005.64
2018-06-11T13:03:16.062Z,1005.63
2018-06-11T13:05:09.102Z,1005.59
2018-06-11T13:06:09.121Z,1005.57
2018-06-11T13:08:02.179Z,1005.58
2018-06-11T13:09:02.175Z,1005.55
2018-06-11T13:10:55.216Z,1005.56
2018-06-11T13:11:55.237Z,1005.53
2018-06-11T13:13:48.302Z,1005.61
2018-06-11T13:14:48.294Z,1005.60
2018-06-11T13:16:41.363Z,1005.58
2018-06-11T13:17:41.353Z,1005.54
2018-06-11T13:19:34.431Z,1005.60
2018-06-11T13:20:34.435Z,1005.59
2018-06-11T13:22:27.469Z,1005.61
2018-06-11T13:23:27.474Z,1005.61
2018-06-11T13:25:20.508Z,1005.66
2018-06-11T13:26:20.528Z,1005.69
2018-06-11T13:28:13.491Z,1005.68
2018-06-11T13:29:13.496Z,1005.62
2018-06-11T13:31:06.430Z,1005.63
2018-06-11T13:32:06.445Z,1005.55
2018-06-11T13:33:59.414Z,1005.57
2018-06-11T13:34:59.416Z,1005.57
2018-06-11T13:36:52.375Z,1005.53
2018-06-11T13:37:52.377Z,1005.53
2018-06-11T13:39:45.364Z,1005.51
2018-06-11T13:40:45.336Z,1005.49
2018-06-11T13:42:38.297Z,1005.52
2018-06-11T13:43:38.296Z,1005.50
2018-06-11T13:45:31.298Z,1005.47
2018-06-11T13:46:32.200Z,1005.44
2018-06-11T13:48:26.316Z,1005.43
2018-06-11T13:49:24.795Z,1005.38
2018-06-11T13:51:18.659Z,1005.42
2018-06-11T13:52:17.811Z,1005.39
2018-06-11T13:54:29.781Z,1005.36
2018-06-11T13:55:14.659Z,1005.35
2018-06-11T13:57:05.341Z,1005.38
2018-06-11T13:58:05.304Z,1005.42
2018-06-11T13:59:58.305Z,1005.38
2018-06-11T14:00:58.313Z,1005.42
2018-06-11T14:02:54.236Z,1005.33
2018-06-11T14:03:52.261Z,1005.34
2018-06-11T14:05:46.270Z,1005.26
2018-06-11T14:06:47.293Z,1005.29
2018-06-11T14:08:39.247Z,1005.27
2018-06-11T14:09:37.279Z,1005.22
2018-06-11T14:11:30.307Z,1005.31
2018-06-11T14:12:31.284Z,1005.24
2018-06-11T14:14:24.630Z,1005.23
2018-06-11T14:15:23.292Z,1005.18
2018-06-11T14:17:16.258Z,1005.26
2018-06-11T14:18:17.301Z,1005.21
2018-06-11T14:20:09.294Z,1005.25
2018-06-11T14:21:12.224Z,1005.25
2018-06-11T14:23:02.821Z,1005.28
2018-06-11T14:24:03.237Z,1005.27
2018-06-11T14:25:56.328Z,1005.31
2018-06-11T14:26:55.784Z,1005.30
2018-06-11T14:28:50.267Z,1005.35
2018-06-11T14:29:51.130Z,1005.46
2018-06-11T14:31:43.772Z,1005.44
2018-06-11T14:34:01.743Z,1005.45
2018-06-11T14:34:58.195Z,1005.45
2018-06-11T14:36:52.581Z,1005.42
2018-06-11T14:37:51.732Z,1005.42
2018-06-11T14:39:44.587Z,1005.49
2018-06-11T14:40:45.079Z,1005.45
2018-06-11T14:42:36.760Z,1005.46
2018-06-11T14:43:37.753Z,1005.48
2018-06-11T14:45:29.732Z,1005.49
2018-06-11T14:46:30.660Z,1005.42
2018-06-11T14:48:23.273Z,1005.43
2018-06-11T14:49:27.125Z,1005.46
2018-06-11T14:51:16.663Z,1005.44
2018-06-11T14:52:16.778Z,1005.42
2018-06-11T14:54:12.155Z,1005.41
2018-06-11T14:55:10.650Z,1005.42
2018-06-11T14:57:07.242Z,1005.40
2018-06-11T14:58:04.690Z,1005.37
2018-06-11T14:59:58.682Z,1005.40
2018-06-11T15:00:57.624Z,1005.33
2018-06-11T15:02:50.638Z,1005.31
2018-06-11T15:03:49.701Z,1005.29
2018-06-11T15:05:49.610Z,1005.26
2018-06-11T15:06:44.625Z,1005.26
2018-06-11T15:08:37.495Z,1005.22
2018-06-11T15:09:39.091Z,1005.21
2018-06-11T15:11:29.604Z,1005.17
2018-06-11T15:12:30.101Z,1005.10
2018-06-11T15:14:22.641Z,1005.15
2018-06-11T15:15:22.560Z,1005.11
2018-06-11T15:17:15.598Z,1005.19
2018-06-11T15:18:15.605Z,1005.19
2018-06-11T15:20:10.418Z,1005.16
2018-06-11T15:21:08.573Z,1005.13
2018-06-11T15:23:01.611Z,1005.18
2018-06-11T15:24:05.639Z,1005.11
2018-06-11T15:25:56.443Z,1005.13
2018-06-11T15:26:55.084Z,1005.13
2018-06-11T15:28:49.024Z,1005.06
2018-06-11T15:29:49.097Z,1005.06
2018-06-11T15:31:41.091Z,1005.07
2018-06-11T15:32:41.175Z,1005.07
2018-06-11T15:34:35.716Z,1005.07
2018-06-11T15:35:34.570Z,1005.05
2018-06-11T15:37:28.950Z,1005.07
2018-06-11T15:38:29.375Z,1005.05
2018-06-11T15:40:21.598Z,1005.04
2018-06-11T15:41:23.960Z,1005.06
2018-06-11T15:43:16.525Z,1005.00
2018-06-11T15:44:15.078Z,1005.03
2018-06-11T15:46:07.933Z,1004.96
2018-06-11T15:47:08.776Z,1004.93
2018-06-11T15:49:02.411Z,1004.94
2018-06-11T15:51:13.993Z,1004.94
2018-06-11T15:52:13.906Z,1004.97
2018-06-11T15:54:07.871Z,1004.98
2018-06-11T15:55:06.955Z,1004.96
2018-06-11T15:57:00.751Z,1004.95
2018-06-11T15:58:00.958Z,1004.93
2018-06-11T15:59:53.068Z,1004.92
2018-06-11T16:00:53.911Z,1004.92
2018-06-11T16:02:47.263Z,1004.91
2018-06-11T16:03:45.921Z,1004.86
2018-06-11T16:05:38.866Z,1004.86
2018-06-11T16:06:38.873Z,1004.87
2018-06-11T16:08:31.904Z,1004.87
2018-06-11T16:09:34.800Z,1004.81
2018-06-11T16:11:26.326Z,1004.87
2018-06-11T16:12:26.320Z,1004.88
2018-06-11T16:14:19.277Z,1004.91
2018-06-11T16:15:19.277Z,1004.92
2018-06-11T16:17:12.219Z,1004.91
2018-06-11T16:18:12.233Z,1004.91
2018-06-11T16:20:05.194Z,1004.89
2018-06-11T16:21:05.190Z,1004.91
2018-06-11T16:22:58.144Z,1004.97
2018-06-11T16:23:58.158Z,1004.98
2018-06-11T16:25:51.100Z,1004.94
2018-06-11T16:26:51.108Z,1004.97
2018-06-11T16:28:44.068Z,1004.93
2018-06-11T16:29:44.062Z,1004.96
2018-06-11T16:31:37.003Z,1005.00
2018-06-11T16:32:37.014Z,1004.97
2018-06-11T16:34:29.976Z,1004.98
2018-06-11T16:35:29.974Z,1004.98
2018-06-11T16:37:22.913Z,1004.92
2018-06-11T16:38:22.925Z,1004.94
2018-06-11T16:40:15.882Z,1004.92
2018-06-11T16:41:15.880Z,1004.96
2018-06-11T16:43:08.814Z,1004.94
2018-06-11T16:44:08.833Z,1004.95
2018-06-11T16:46:01.783Z,1004.96
2018-06-11T16:47:01.786Z,1004.98
2018-06-11T16:48:54.784Z,1004.98
2018-06-11T16:49:54.736Z,1004.97
2018-06-11T16:51:47.679Z,1004.93
2018-06-11T16:52:47.694Z,1004.98
2018-06-11T16:54:40.657Z,1005.01
2018-06-11T16:55:40.648Z,1005.00
2018-06-11T16:57:33.590Z,1005.00
2018-06-11T16:58:33.602Z,1005.03
2018-06-11T17:00:26.564Z,1005.00
2018-06-11T17:01:26.573Z,1005.06
2018-06-11T17:03:19.508Z,1005.06
2018-06-11T17:04:19.509Z,1005.05
2018-06-11T17:06:12.471Z,1005.04
2018-06-11T17:07:12.464Z,1005.05
2018-06-11T17:09:05.421Z,1005.03
2018-06-11T17:10:05.421Z,1005.05
2018-06-11T17:11:58.364Z,1005.06
2018-06-11T17:12:58.378Z,1005.10
2018-06-11T17:14:51.333Z,1005.08
2018-06-11T17:15:51.332Z,1005.05
2018-06-11T17:17:44.277Z,1005.10
2018-06-11T17:18:44.295Z,1005.12
2018-06-11T17:20:37.249Z,1005.07
2018-06-11T17:21:37.246Z,1005.05
2018-06-11T17:23:30.183Z,1005.08
2018-06-11T17:24:30.194Z,1005.06
2018-06-11T17:26:23.169Z,1005.11
2018-06-11T17:27:23.155Z,1005.08
2018-06-11T17:29:16.105Z,1005.06
2018-06-11T17:30:16.108Z,1005.13
2018-06-11T17:32:09.045Z,1005.11
2018-06-11T17:33:09.062Z,1005.08
2018-06-11T17:35:02.023Z,1005.08
2018-06-11T17:36:02.030Z,1005.11
2018-06-11T17:37:54.952Z,1005.11
2018-06-11T17:38:54.971Z,1005.09
2018-06-11T17:40:47.920Z,1005.09
2018-06-11T17:41:47.919Z,1005.11
2018-06-11T17:43:40.858Z,1005.09
2018-06-11T17:44:40.885Z,1005.08
2018-06-11T17:46:33.832Z,1005.11
2018-06-11T17:47:33.831Z,1005.06
2018-06-11T17:49:26.792Z,1005.09
2018-06-11T17:50:26.783Z,1005.05
2018-06-11T17:52:19.718Z,1005.07
2018-06-11T17:53:19.737Z,1005.06
2018-06-11T17:55:12.690Z,1004.96
2018-06-11T17:56:12.691Z,1005.01
2018-06-11T17:58:05.626Z,1005.00
2018-06-11T17:59:05.650Z,1005.00
2018-06-11T18:00:58.595Z,1004.95
2018-06-11T18:01:58.604Z,1004.94
2018-06-11T18:03:51.534Z,1004.96
2018-06-11T18:04:51.550Z,1004.93
2018-06-11T18:06:44.503Z,1004.94
2018-06-11T18:07:44.504Z,1004.93
2018-06-11T18:09:37.454Z,1004.98
2018-06-11T18:10:37.453Z,1004.99
2018-06-11T18:12:30.382Z,1005.01
2018-06-11T18:13:30.396Z,1005.00
2018-06-11T18:15:23.364Z,1005.02
2018-06-11T18:16:23.354Z,1005.03
2018-06-11T18:18:16.289Z,1005.05
2018-06-11T18:19:16.306Z,1005.05
2018-06-11T18:21:09.265Z,1005.04
2018-06-11T18:22:09.261Z,1005.01
2018-06-11T18:24:02.202Z,1004.98
2018-06-11T18:25:02.215Z,1004.94
2018-06-11T18:26:55.173Z,1004.97
2018-06-11T18:27:55.171Z,1004.94
2018-06-11T18:29:48.135Z,1004.92
2018-06-11T18:30:48.132Z,1004.95
2018-06-11T18:32:41.066Z,1004.93
2018-06-11T18:33:41.081Z,1004.87
2018-06-11T18:35:34.064Z,1004.89
2018-06-11T18:36:34.040Z,1004.93
2018-06-11T18:38:26.967Z,1004.90
2018-06-11T18:39:26.989Z,1004.84
2018-06-11T18:41:19.961Z,1004.91
2018-06-11T18:42:19.942Z,1004.92
2018-06-11T18:44:12.888Z,1004.94
2018-06-11T18:45:12.905Z,1004.90
2018-06-11T18:47:05.856Z,1004.98
2018-06-11T18:48:05.862Z,1004.97
2018-06-11T18:49:58.810Z,1005.01
2018-06-11T18:50:58.805Z,1004.98
2018-06-11T18:52:51.740Z,1005.00
2018-06-11T18:53:51.761Z,1005.06
2018-06-11T18:55:44.806Z,1004.98
2018-06-11T18:56:44.713Z,1004.97
2018-06-11T18:58:37.651Z,1005.02
2018-06-11T18:59:37.670Z,1005.05
2018-06-11T19:01:30.627Z,1005.05
2018-06-11T19:02:30.625Z,1005.04
2018-06-11T19:04:23.557Z,1005.05
2018-06-11T19:05:23.577Z,1005.08
2018-06-11T19:07:16.532Z,1005.01
2018-06-11T19:08:16.555Z,1005.11
2018-06-11T19:10:09.486Z,1005.10
2018-06-11T19:11:09.479Z,1005.05
2018-06-11T19:13:02.414Z,1005.10
2018-06-11T19:14:02.431Z,1005.11
2018-06-11T19:15:55.388Z,1005.15
2018-06-11T19:16:55.386Z,1005.18
2018-06-11T19:18:48.349Z,1005.18
2018-06-11T19:19:48.354Z,1005.21
2018-06-11T19:21:41.300Z,1005.20
2018-06-11T19:22:41.302Z,1005.23
2018-06-11T19:24:34.238Z,1005.25
2018-06-11T19:25:34.276Z,1005.28
2018-06-11T19:27:27.221Z,1005.29